Time;durP1;ratioP1;P1;durP2;ratioP2;P2;SDS_P1;SDS_P2;PMS_P1;PMS_P2;Temp;Humidity;BMP_temperature;BMP_pressure;BME280_temperature;BME280_humidity;BME280_pressure;Samples;Min_cycle;Max_cycle;Signal;HPM_P1;HPM_P2
2022/12/10 00:01:35;;;;;;;21.08;9.93;;;2.40;92.60;;;;;;5003185;28;20033;-66
2022/12/10 00:04:01;;;;;;;21.35;10.30;;;2.40;92.70;;;;;;5012123;28;20041;-66
2022/12/10 00:06:30;;;;;;;15.90;8.75;;;2.40;92.70;;;;;;5013521;28;20057;-66
2022/12/10 00:08:56;;;;;;;20.13;9.40;;;2.40;92.60;;;;;;5011315;28;20034;-66
2022/12/10 00:11:23;;;;;;;24.50;11.57;;;2.40;92.80;;;;;;5007464;28;20454;-74
2022/12/10 00:13:50;;;;;;;20.23;9.80;;;2.40;92.80;;;;;;5010738;28;20038;-64
2022/12/10 00:16:18;;;;;;;20.05;9.65;;;2.40;92.90;;;;;;5010178;28;20033;-70
2022/12/10 00:18:45;;;;;;;20.15;9.73;;;2.40;92.90;;;;;;5008006;28;20034;-69
2022/12/10 00:21:13;;;;;;;18.80;9.45;;;2.30;92.80;;;;;;5000487;28;20155;-66
2022/12/10 00:23:39;;;;;;;20.13;10.05;;;2.40;92.80;;;;;;5015065;28;20029;-67
2022/12/10 00:26:11;;;;;;;20.17;9.10;;;2.40;92.90;;;;;;5011590;28;20026;-67
2022/12/10 00:28:38;;;;;;;19.10;8.88;;;2.40;92.80;;;;;;5011604;28;20048;-67
2022/12/10 00:31:07;;;;;;;23.67;9.57;;;2.40;92.80;;;;;;5002691;28;20037;-67
2022/12/10 00:33:33;;;;;;;19.23;9.80;;;2.30;92.80;;;;;;5013920;28;20890;-74
2022/12/10 00:36:04;;;;;;;22.80;10.73;;;2.30;92.80;;;;;;5008834;28;20378;-67
2022/12/10 00:38:30;;;;;;;18.73;8.40;;;2.30;92.90;;;;;;5004854;28;20029;-67
2022/12/10 00:40:56;;;;;;;21.88;9.93;;;2.30;92.90;;;;;;5004233;28;20044;-69
2022/12/10 00:43:22;;;;;;;16.10;8.77;;;2.30;92.90;;;;;;5011390;28;20516;-68
2022/12/10 00:45:48;;;;;;;18.33;8.52;;;2.30;92.70;;;;;;5012601;28;20089;-67
2022/12/10 00:48:14;;;;;;;18.25;8.77;;;2.30;92.70;;;;;;5008439;28;20037;-68
2022/12/10 00:50:39;;;;;;;19.52;8.52;;;2.30;92.80;;;;;;5005257;28;20029;-67
2022/12/10 00:53:05;;;;;;;18.70;9.77;;;2.30;92.80;;;;;;5007193;28;20487;-70
2022/12/10 00:55:31;;;;;;;14.70;7.78;;;2.30;92.80;;;;;;5007904;28;20041;-75
2022/12/10 00:57:57;;;;;;;18.63;9.07;;;2.30;92.60;;;;;;5001869;28;20121;-72
2022/12/10 01:00:24;;;;;;;15.20;8.05;;;2.30;92.60;;;;;;5007343;28;20038;-67
2022/12/10 01:02:50;;;;;;;16.98;8.27;;;2.20;92.50;;;;;;5009030;28;20049;-68
2022/12/10 01:05:17;;;;;;;16.38;8.70;;;2.20;92.60;;;;;;5012609;28;20489;-68
2022/12/10 01:07:42;;;;;;;16.40;8.52;;;2.30;92.60;;;;;;5007281;28;20041;-68
2022/12/10 01:10:09;;;;;;;16.88;7.90;;;2.20;92.60;;;;;;5002344;28;20039;-67
2022/12/10 01:12:35;;;;;;;17.70;8.45;;;2.20;92.50;;;;;;5006644;28;20026;-66
2022/12/10 01:15:01;;;;;;;21.77;8.55;;;2.20;92.50;;;;;;5010838;28;20065;-67
2022/12/10 01:17:27;;;;;;;15.70;7.47;;;2.20;92.60;;;;;;5006203;28;20065;-66
2022/12/10 01:19:53;;;;;;;16.38;8.60;;;2.20;92.70;;;;;;5009450;28;20120;-67
2022/12/10 01:22:19;;;;;;;17.65;8.35;;;2.20;92.80;;;;;;5012011;28;20033;-68
2022/12/10 01:24:44;;;;;;;15.50;7.72;;;2.20;92.80;;;;;;5012067;28;20132;-67
2022/12/10 01:27:12;;;;;;;18.23;8.80;;;2.20;92.70;;;;;;5011630;28;20413;-68
2022/12/10 01:29:38;;;;;;;16.10;7.85;;;2.20;92.70;;;;;;5004987;28;20029;-68
2022/12/10 01:32:03;;;;;;;17.25;8.27;;;2.20;92.60;;;;;;5009383;28;20871;-67
2022/12/10 01:34:29;;;;;;;14.68;8.07;;;2.20;92.60;;;;;;5010049;28;20639;-68
2022/12/10 01:36:55;;;;;;;21.27;8.95;;;2.20;92.60;;;;;;5004932;28;20036;-68
2022/12/10 01:39:22;;;;;;;18.58;8.98;;;2.20;92.60;;;;;;5017921;28;20030;-68
2022/12/10 01:41:52;;;;;;;20.05;10.25;;;2.20;92.40;;;;;;5015619;28;20667;-68
2022/12/10 01:44:18;;;;;;;18.23;9.25;;;2.10;92.20;;;;;;5046244;28;20036;-67
2022/12/10 01:46:46;;;;;;;18.95;9.15;;;2.10;92.50;;;;;;5008349;28;20030;-68
2022/12/10 01:49:21;;;;;;;18.13;8.85;;;2.10;92.80;;;;;;5006384;28;20137;-68
2022/12/10 01:51:50;;;;;;;16.98;8.55;;;2.10;92.80;;;;;;5015663;28;20072;-68
2022/12/10 01:54:25;;;;;;;17.05;8.65;;;2.00;92.70;;;;;;5006631;28;20861;-68
2022/12/10 01:57:01;;;;;;;16.98;8.77;;;2.00;93.00;;;;;;5007956;28;20056;-67
2022/12/10 01:59:28;;;;;;;20.25;9.18;;;2.00;93.20;;;;;;5046239;28;20029;-68
2022/12/10 02:02:36;;;;;;;16.38;8.43;;;2.00;93.10;;;;;;5012737;28;20044;-68
2022/12/10 02:05:18;;;;;;;15.40;7.60;;;2.00;93.10;;;;;;5009272;28;20156;-67
2022/12/10 02:08:03;;;;;;;18.60;8.80;;;2.00;93.20;;;;;;5012765;28;20156;-67
2022/12/10 02:10:51;;;;;;;23.75;9.57;;;2.00;93.00;;;;;;5014130;28;20032;-68
2022/12/10 02:13:41;;;;;;;14.05;7.53;;;2.00;92.90;;;;;;5016653;28;20123;-67
2022/12/10 02:16:15;;;;;;;20.23;8.82;;;2.10;92.90;;;;;;5006180;28;20033;-67
2022/12/10 02:19:01;;;;;;;18.15;9.98;;;2.00;92.80;;;;;;5011329;28;20037;-68
2022/12/10 02:21:35;;;;;;;17.73;8.15;;;2.00;92.90;;;;;;5015215;28;20038;-68
2022/12/10 02:24:05;;;;;;;17.83;8.25;;;2.00;92.80;;;;;;5006936;28;20069;-68
2022/12/10 02:26:47;;;;;;;17.60;8.32;;;2.00;92.60;;;;;;5011385;28;20030;-68
2022/12/10 02:29:15;;;;;;;16.65;8.35;;;2.00;92.60;;;;;;5017843;28;20057;-68
2022/12/10 02:31:47;;;;;;;16.80;8.25;;;2.00;92.80;;;;;;5014572;28;20030;-68
2022/12/10 02:34:15;;;;;;;14.43;7.72;;;2.00;92.80;;;;;;5002234;28;20029;-68
2022/12/10 02:36:44;;;;;;;18.67;9.02;;;2.00;92.80;;;;;;5015664;28;20417;-67
2022/12/10 02:39:17;;;;;;;17.63;7.80;;;2.00;92.80;;;;;;5012891;28;20260;-68
2022/12/10 02:41:52;;;;;;;18.50;7.80;;;2.00;92.80;;;;;;5010299;28;20034;-68
2022/12/10 02:44:20;;;;;;;15.05;7.28;;;2.00;92.70;;;;;;5006482;28;20149;-67
2022/12/10 02:46:49;;;;;;;18.02;8.48;;;2.00;92.80;;;;;;5007458;28;20501;-68
2022/12/10 02:49:18;;;;;;;17.25;8.23;;;2.00;92.80;;;;;;5016323;28;20048;-67
2022/12/10 02:51:44;;;;;;;15.48;8.25;;;2.00;92.70;;;;;;5003831;28;20038;-67
2022/12/10 02:54:43;;;;;;;14.95;7.35;;;2.00;92.70;;;;;;5016473;28;20042;-67
2022/12/10 02:57:25;;;;;;;15.15;7.88;;;2.00;92.60;;;;;;4994871;28;20049;-67
2022/12/10 03:00:18;;;;;;;16.40;7.90;;;2.00;92.50;;;;;;5016109;28;20067;-67
2022/12/10 03:03:25;;;;;;;15.45;8.40;;;2.00;92.50;;;;;;5038356;28;20200;-67
2022/12/10 03:05:59;;;;;;;16.55;8.23;;;2.00;92.60;;;;;;5011014;28;20036;-67
2022/12/10 03:08:38;;;;;;;18.63;8.65;;;2.00;92.70;;;;;;5010047;28;20542;-67
2022/12/10 03:11:17;;;;;;;15.25;7.63;;;2.00;93.10;;;;;;5003889;28;20038;-67
2022/12/10 03:14:25;;;;;;;16.45;7.88;;;2.00;92.70;;;;;;5011255;28;20047;-67
2022/12/10 03:16:56;;;;;;;16.50;7.20;;;2.00;92.70;;;;;;4955332;28;20035;-68
2022/12/10 03:19:30;;;;;;;14.35;7.95;;;2.00;92.80;;;;;;4973004;28;20045;-68
2022/12/10 03:21:58;;;;;;;16.45;8.80;;;2.00;92.80;;;;;;4996403;28;20065;-67
2022/12/10 03:24:26;;;;;;;15.13;7.95;;;2.00;92.70;;;;;;5010821;28;20037;-67
2022/12/10 03:26:52;;;;;;;14.98;7.82;;;2.00;92.70;;;;;;5017123;28;20064;-68
2022/12/10 03:29:25;;;;;;;14.05;7.00;;;2.00;92.60;;;;;;5004171;28;20039;-67
2022/12/10 03:31:53;;;;;;;17.13;7.53;;;2.00;92.70;;;;;;5011593;28;20382;-67
2022/12/10 03:34:20;;;;;;;14.65;7.70;;;2.00;92.70;;;;;;5013098;28;20040;-67
2022/12/10 03:36:46;;;;;;;13.57;6.95;;;2.00;92.70;;;;;;5013917;28;20121;-67
2022/12/10 03:39:13;;;;;;;15.95;7.80;;;2.00;92.70;;;;;;5008282;28;20038;-67
2022/12/10 03:41:39;;;;;;;13.80;7.70;;;2.00;92.70;;;;;;5004005;28;20801;-67
2022/12/10 03:44:05;;;;;;;16.02;8.05;;;2.00;92.80;;;;;;5010506;28;20125;-67
2022/12/10 03:46:31;;;;;;;15.82;7.47;;;2.00;92.70;;;;;;5009735;28;20567;-68
2022/12/10 03:48:58;;;;;;;12.68;7.35;;;2.00;92.80;;;;;;5003803;28;20206;-67
2022/12/10 03:51:24;;;;;;;14.60;7.45;;;2.00;92.70;;;;;;5014215;28;20040;-68
2022/12/10 03:53:50;;;;;;;14.30;7.65;;;2.00;92.70;;;;;;5014147;28;20035;-68
2022/12/10 03:56:17;;;;;;;14.02;7.45;;;2.00;92.70;;;;;;5013340;28;20042;-68
2022/12/10 03:58:43;;;;;;;15.73;7.93;;;2.10;92.70;;;;;;5011724;28;20798;-68
2022/12/10 04:01:09;;;;;;;15.52;7.53;;;2.00;92.60;;;;;;5006599;28;20125;-68
2022/12/10 04:03:37;;;;;;;17.75;8.25;;;2.00;92.50;;;;;;5011341;28;20029;-68
2022/12/10 04:06:05;;;;;;;13.57;8.00;;;2.10;92.40;;;;;;5007162;28;20115;-67
2022/12/10 04:08:31;;;;;;;15.35;7.63;;;2.00;92.30;;;;;;5005236;28;20078;-66
2022/12/10 04:11:03;;;;;;;18.55;9.40;;;2.00;92.50;;;;;;5013101;28;20493;-68
2022/12/10 04:16:29;;;;;;;15.82;8.25;;;2.00;92.50;;;;;;5010644;28;20735;-67
2022/12/10 04:19:07;;;;;;;18.48;9.38;;;1.90;92.60;;;;;;5006082;28;20125;-67
2022/12/10 04:27:16;;;;;;;16.30;7.88;;;1.90;92.50;;;;;;5007822;28;20077;-70
2022/12/10 04:29:42;;;;;;;17.98;8.75;;;2.00;92.60;;;;;;5013825;28;20044;-70
2022/12/10 04:32:08;;;;;;;18.27;8.15;;;2.00;92.70;;;;;;5012557;28;20041;-67
2022/12/10 04:34:34;;;;;;;18.98;8.70;;;1.90;92.60;;;;;;5013058;28;20029;-67
2022/12/10 04:37:00;;;;;;;17.45;8.38;;;1.90;92.60;;;;;;5003569;28;20041;-68
2022/12/10 04:39:26;;;;;;;15.20;8.60;;;1.90;92.30;;;;;;5007472;28;20030;-67
2022/12/10 04:41:52;;;;;;;18.50;8.98;;;1.90;92.30;;;;;;5010370;28;20375;-67
2022/12/10 04:44:19;;;;;;;17.77;8.85;;;1.90;92.30;;;;;;5005476;28;20054;-68
2022/12/10 04:46:45;;;;;;;15.07;8.20;;;1.90;92.30;;;;;;5005123;28;20037;-68
2022/12/10 04:49:12;;;;;;;15.40;8.30;;;1.90;92.40;;;;;;5012420;28;20772;-68
2022/12/10 04:51:38;;;;;;;18.27;7.93;;;1.90;92.50;;;;;;5012785;28;20083;-68
2022/12/10 04:54:04;;;;;;;16.48;8.70;;;1.90;92.60;;;;;;5008418;28;20081;-67
2022/12/10 04:56:30;;;;;;;17.23;8.52;;;1.90;92.60;;;;;;5006681;28;20159;-68
2022/12/10 04:58:57;;;;;;;19.95;8.85;;;1.90;92.60;;;;;;5008119;28;20129;-67
2022/12/10 05:01:23;;;;;;;18.48;9.20;;;1.90;92.50;;;;;;5012100;28;20053;-68
2022/12/10 05:03:49;;;;;;;19.15;8.52;;;2.00;92.40;;;;;;5004480;28;20042;-68
2022/12/10 05:06:16;;;;;;;18.73;8.55;;;1.90;92.20;;;;;;5009288;28;20036;-67
2022/12/10 05:08:43;;;;;;;17.20;8.63;;;1.90;92.50;;;;;;5012777;28;20045;-67
2022/12/10 05:11:14;;;;;;;17.33;8.57;;;1.90;92.40;;;;;;5012782;28;20167;-68
2022/12/10 05:13:40;;;;;;;18.42;8.75;;;1.90;92.60;;;;;;5012158;28;20026;-68
2022/12/10 05:16:08;;;;;;;17.52;8.18;;;1.90;92.60;;;;;;5009092;28;20537;-68
2022/12/10 05:18:35;;;;;;;18.58;9.23;;;1.90;92.60;;;;;;5015147;28;20026;-68
2022/12/10 05:21:03;;;;;;;17.15;8.57;;;1.90;92.70;;;;;;5011104;28;20029;-67
2022/12/10 05:23:29;;;;;;;18.42;8.57;;;1.90;92.80;;;;;;5005829;28;20060;-68
2022/12/10 05:26:10;;;;;;;17.23;9.32;;;1.90;93.00;;;;;;5016414;28;20462;-68
2022/12/10 05:28:38;;;;;;;18.30;8.27;;;1.90;92.70;;;;;;5014707;28;20147;-68
2022/12/10 05:31:05;;;;;;;18.40;7.88;;;1.90;92.60;;;;;;5015643;28;20030;-68
2022/12/10 05:33:31;;;;;;;18.08;8.93;;;2.00;92.60;;;;;;5010261;28;20033;-68
2022/12/10 05:35:58;;;;;;;15.30;7.28;;;2.00;92.60;;;;;;5009707;28;20184;-68
2022/12/10 05:38:25;;;;;;;17.98;9.07;;;1.90;92.60;;;;;;5046921;28;20069;-68
2022/12/10 05:40:51;;;;;;;17.42;9.05;;;2.00;92.70;;;;;;5008138;28;20250;-67
2022/12/10 05:43:17;;;;;;;15.55;8.07;;;1.90;92.60;;;;;;5004972;28;20049;-68
2022/12/10 05:45:44;;;;;;;16.15;8.82;;;2.00;92.70;;;;;;5012009;28;20033;-67
2022/12/10 05:48:11;;;;;;;17.45;8.63;;;2.00;92.70;;;;;;5016228;28;20250;-68
2022/12/10 05:50:37;;;;;;;18.63;8.80;;;2.00;92.70;;;;;;5014308;28;20044;-67
2022/12/10 05:53:02;;;;;;;18.50;9.00;;;1.90;92.60;;;;;;5008871;28;20030;-68
2022/12/10 05:55:28;;;;;;;18.83;8.52;;;1.90;92.70;;;;;;5011670;28;20100;-68
2022/12/10 05:57:55;;;;;;;17.42;8.35;;;1.90;92.60;;;;;;5013083;28;20038;-68
2022/12/10 06:00:23;;;;;;;18.13;9.32;;;2.00;92.60;;;;;;5006834;28;20042;-68
2022/12/10 06:02:50;;;;;;;18.88;8.57;;;2.00;92.40;;;;;;5012179;28;20033;-67
2022/12/10 06:05:16;;;;;;;16.65;8.50;;;1.90;92.40;;;;;;5013594;28;20025;-68
2022/12/10 06:07:42;;;;;;;17.10;8.23;;;1.90;92.30;;;;;;5011495;28;20129;-67
2022/12/10 06:10:08;;;;;;;17.85;8.73;;;1.90;92.40;;;;;;5007887;28;20034;-68
2022/12/10 06:12:34;;;;;;;14.85;7.97;;;1.90;92.50;;;;;;5009254;28;20118;-67
2022/12/10 06:15:00;;;;;;;21.08;9.18;;;1.80;92.60;;;;;;5008730;28;20029;-68
2022/12/10 06:17:25;;;;;;;16.15;8.25;;;1.90;92.70;;;;;;5011073;28;20044;-72
2022/12/10 06:19:51;;;;;;;18.98;9.00;;;1.90;92.50;;;;;;5009679;28;20232;-71
2022/12/10 06:22:17;;;;;;;17.00;8.15;;;1.90;92.70;;;;;;5014331;28;20112;-71
2022/12/10 06:24:43;;;;;;;17.42;8.38;;;1.80;92.60;;;;;;5011358;28;20038;-72
2022/12/10 06:27:09;;;;;;;14.85;8.15;;;1.80;92.60;;;;;;5014115;28;20790;-71
2022/12/10 06:29:35;;;;;;;17.38;8.32;;;1.90;92.60;;;;;;5011656;28;20501;-68
2022/12/10 06:32:01;;;;;;;18.02;8.40;;;1.90;92.70;;;;;;5009204;28;20037;-69
2022/12/10 06:34:27;;;;;;;17.58;8.13;;;1.90;92.60;;;;;;5008596;28;20037;-70
2022/12/10 06:36:53;;;;;;;18.52;8.90;;;1.90;92.60;;;;;;5007271;28;20041;-68
2022/12/10 06:39:19;;;;;;;18.77;9.00;;;1.90;92.60;;;;;;5008567;28;20075;-70
2022/12/10 06:41:45;;;;;;;16.58;7.65;;;1.90;92.60;;;;;;5008902;28;20088;-71
2022/12/10 06:44:12;;;;;;;16.83;8.85;;;1.90;92.50;;;;;;5011516;28;20042;-69
2022/12/10 06:46:40;;;;;;;18.27;9.02;;;1.90;92.60;;;;;;5009638;28;20710;-71
2022/12/10 06:49:06;;;;;;;22.77;9.45;;;1.90;92.50;;;;;;5007677;28;20034;-70
2022/12/10 06:51:32;;;;;;;18.02;8.40;;;1.90;92.40;;;;;;5012066;28;20061;-67
2022/12/10 06:53:58;;;;;;;19.13;8.63;;;1.80;92.50;;;;;;5008247;28;20068;-67
2022/12/10 06:56:24;;;;;;;17.30;8.05;;;1.80;92.60;;;;;;5005814;28;20076;-67
2022/12/10 06:58:52;;;;;;;17.52;8.32;;;1.80;92.70;;;;;;5014926;28;20033;-73
2022/12/10 07:01:21;;;;;;;15.50;8.60;;;1.80;92.80;;;;;;5009009;28;20040;-68
2022/12/10 07:03:51;;;;;;;16.33;8.55;;;1.80;92.70;;;;;;5008948;28;21035;-67
2022/12/10 07:06:18;;;;;;;16.67;7.85;;;1.80;92.70;;;;;;5009401;28;20044;-68
2022/12/10 07:08:43;;;;;;;15.52;7.78;;;1.80;92.70;;;;;;5009587;28;20125;-70
2022/12/10 07:11:12;;;;;;;19.58;8.40;;;1.80;92.80;;;;;;5010428;28;20048;-71
2022/12/10 07:13:39;;;;;;;14.68;7.93;;;1.80;92.80;;;;;;5014565;28;20048;-72
2022/12/10 07:16:16;;;;;;;12.73;7.60;;;1.80;92.80;;;;;;5005319;28;20034;-76
2022/12/10 07:18:42;;;;;;;16.40;8.52;;;1.80;92.80;;;;;;5004953;28;20033;-65
2022/12/10 07:21:15;;;;;;;15.75;8.00;;;1.80;92.80;;;;;;5007499;28;20036;-76
2022/12/10 07:23:40;;;;;;;14.95;7.72;;;1.80;92.70;;;;;;5008979;28;20038;-75
2022/12/10 07:26:06;;;;;;;15.85;8.55;;;1.80;92.70;;;;;;5012460;28;20155;-75
2022/12/10 07:28:33;;;;;;;15.65;7.75;;;1.80;92.70;;;;;;4995270;28;20087;-74
2022/12/10 07:31:04;;;;;;;17.88;8.35;;;1.80;92.70;;;;;;5006854;28;20033;-75
2022/12/10 07:33:30;;;;;;;15.70;7.90;;;1.80;92.80;;;;;;5005769;28;20032;-70
2022/12/10 07:35:56;;;;;;;14.88;7.72;;;1.70;92.80;;;;;;5006533;28;20038;-71
2022/12/10 07:38:23;;;;;;;17.35;8.18;;;1.80;92.90;;;;;;5011425;28;20112;-71
2022/12/10 07:40:50;;;;;;;17.45;7.90;;;1.70;92.90;;;;;;5007440;28;20034;-70
2022/12/10 07:43:17;;;;;;;14.32;8.02;;;1.70;92.90;;;;;;5006313;28;20045;-72
2022/12/10 07:45:43;;;;;;;16.25;7.95;;;1.80;93.00;;;;;;5013698;28;20108;-70
2022/12/10 07:48:09;;;;;;;13.10;7.60;;;1.80;93.10;;;;;;5003529;28;20660;-71
2022/12/10 07:50:35;;;;;;;12.60;7.25;;;1.80;93.00;;;;;;5004082;28;20076;-68
2022/12/10 07:53:01;;;;;;;16.02;8.23;;;1.80;92.80;;;;;;5003866;28;20120;-68
2022/12/10 07:55:26;;;;;;;15.30;7.72;;;1.80;92.80;;;;;;5004893;28;20572;-66
2022/12/10 07:57:52;;;;;;;16.10;8.20;;;1.80;92.90;;;;;;5007700;28;20045;-68
2022/12/10 08:00:18;;;;;;;17.40;8.75;;;1.80;93.00;;;;;;5008028;28;20087;-69
2022/12/10 08:02:44;;;;;;;15.77;8.70;;;1.80;93.10;;;;;;5011545;28;20030;-68
2022/12/10 08:05:10;;;;;;;15.90;7.82;;;1.80;93.00;;;;;;5015449;28;20770;-67
2022/12/10 08:07:36;;;;;;;19.08;8.55;;;1.90;93.00;;;;;;5007148;28;20140;-68
2022/12/10 08:10:02;;;;;;;15.70;7.80;;;1.90;92.80;;;;;;5006493;28;20179;-66
2022/12/10 08:12:28;;;;;;;18.17;9.00;;;1.90;92.90;;;;;;5003384;28;20602;-64
2022/12/10 08:14:54;;;;;;;14.40;8.00;;;1.90;92.80;;;;;;5010694;28;20034;-67
2022/12/10 08:17:20;;;;;;;19.15;8.30;;;1.90;92.80;;;;;;5009651;28;20033;-64
2022/12/10 08:19:45;;;;;;;17.73;8.10;;;2.00;92.50;;;;;;5006755;28;20252;-63
2022/12/10 08:22:11;;;;;;;17.23;8.73;;;2.00;92.30;;;;;;5007168;28;20207;-63
2022/12/10 08:24:37;;;;;;;17.58;8.75;;;2.00;92.30;;;;;;5004643;28;20037;-67
2022/12/10 08:27:03;;;;;;;15.65;8.30;;;2.00;92.20;;;;;;5006306;28;20509;-66
2022/12/10 08:29:29;;;;;;;12.10;7.07;;;2.10;92.50;;;;;;5009928;28;20402;-67
2022/12/10 08:31:55;;;;;;;15.32;7.68;;;2.10;92.50;;;;;;5010483;28;20034;-67
2022/12/10 08:34:21;;;;;;;16.35;7.88;;;2.10;92.50;;;;;;5005168;28;20052;-68
2022/12/10 08:36:47;;;;;;;15.55;8.18;;;2.10;92.40;;;;;;5009797;28;20046;-67
2022/12/10 08:39:16;;;;;;;17.73;9.07;;;2.10;92.40;;;;;;5009495;28;20471;-67
2022/12/10 08:41:45;;;;;;;16.58;7.60;;;2.20;92.30;;;;;;5010332;28;20107;-67
2022/12/10 08:44:12;;;;;;;16.15;7.72;;;2.10;92.20;;;;;;5013875;28;20041;-67
2022/12/10 08:46:38;;;;;;;15.85;8.13;;;2.10;92.20;;;;;;5007949;28;20037;-68
2022/12/10 08:49:06;;;;;;;12.60;6.97;;;2.20;92.00;;;;;;5006083;28;20707;-68
2022/12/10 08:51:32;;;;;;;16.50;7.57;;;2.20;91.90;;;;;;5007739;28;20029;-68
2022/12/10 08:53:58;;;;;;;14.20;7.68;;;2.20;92.00;;;;;;5015147;28;20666;-67
2022/12/10 08:56:24;;;;;;;14.38;7.80;;;2.30;91.90;;;;;;5014060;28;20049;-67
2022/12/10 08:58:51;;;;;;;14.40;6.88;;;2.30;91.80;;;;;;5014390;28;20020;-67
2022/12/10 09:01:18;;;;;;;9.93;6.80;;;2.30;91.60;;;;;;5009726;28;20048;-67
2022/12/10 09:03:45;;;;;;;13.90;7.32;;;2.30;91.40;;;;;;5015963;28;20029;-67
2022/12/10 09:06:17;;;;;;;13.25;6.72;;;2.30;91.60;;;;;;5014169;28;20038;-69
2022/12/10 09:08:43;;;;;;;12.68;7.45;;;2.30;91.50;;;;;;5016185;28;20037;-68
2022/12/10 09:11:16;;;;;;;15.05;8.00;;;2.40;91.50;;;;;;5006240;28;20037;-70
2022/12/10 09:13:42;;;;;;;12.05;6.25;;;2.40;91.50;;;;;;5017552;28;20899;-67
2022/12/10 09:16:08;;;;;;;11.02;6.95;;;2.40;91.50;;;;;;5013309;28;20049;-67
2022/12/10 09:18:34;;;;;;;12.90;6.95;;;2.40;91.50;;;;;;5011291;28;20026;-67
2022/12/10 09:21:03;;;;;;;11.13;6.93;;;2.50;91.30;;;;;;5012864;28;20088;-67
2022/12/10 09:23:30;;;;;;;12.68;6.05;;;2.50;91.00;;;;;;5012602;28;20044;-66
2022/12/10 09:25:56;;;;;;;14.77;7.22;;;2.50;91.10;;;;;;5013210;28;20036;-66
2022/12/10 09:28:22;;;;;;;10.75;6.55;;;2.50;91.00;;;;;;5011398;28;20034;-68
2022/12/10 09:31:02;;;;;;;12.93;7.07;;;2.50;90.80;;;;;;5012400;28;20057;-68
2022/12/10 09:33:28;;;;;;;11.73;6.03;;;2.60;90.80;;;;;;5010886;28;20155;-67
2022/12/10 09:35:54;;;;;;;11.57;5.93;;;2.50;90.70;;;;;;5012792;28;20037;-68
2022/12/10 09:38:20;;;;;;;12.23;7.03;;;2.50;90.80;;;;;;5006264;28;20037;-67
2022/12/10 09:41:15;;;;;;;10.85;6.80;;;2.50;90.90;;;;;;5004958;28;20025;-67
2022/12/10 09:43:59;;;;;;;11.95;6.88;;;2.50;90.70;;;;;;5000996;28;20390;-67
2022/12/10 09:46:49;;;;;;;14.18;6.57;;;2.50;90.70;;;;;;5008895;28;20044;-67
2022/12/10 09:49:38;;;;;;;9.75;5.53;;;2.50;90.10;;;;;;5010453;28;20044;-67
2022/12/10 09:52:10;;;;;;;10.10;5.50;;;2.50;90.20;;;;;;5009994;28;20030;-66
2022/12/10 09:54:52;;;;;;;11.10;6.40;;;2.50;90.40;;;;;;5006475;28;20034;-67
2022/12/10 09:57:31;;;;;;;11.98;5.90;;;2.50;90.40;;;;;;5004993;28;20432;-71
2022/12/10 10:00:20;;;;;;;13.45;6.18;;;2.60;90.40;;;;;;5006297;28;20038;-66
2022/12/10 10:02:47;;;;;;;10.38;6.18;;;2.60;90.10;;;;;;5007320;28;20053;-67
2022/12/10 10:05:26;;;;;;;9.75;6.15;;;2.50;90.50;;;;;;5006602;28;20037;-66
2022/12/10 10:07:59;;;;;;;9.80;5.78;;;2.50;90.70;;;;;;5040545;28;20033;-69
2022/12/10 10:10:38;;;;;;;10.10;6.18;;;2.50;90.80;;;;;;5008439;28;20427;-67
2022/12/10 10:13:07;;;;;;;11.77;6.65;;;2.60;90.60;;;;;;5009989;28;20034;-67
2022/12/10 10:15:37;;;;;;;11.88;6.68;;;2.60;90.30;;;;;;5013755;28;20034;-70
2022/12/10 10:18:32;;;;;;;11.13;6.68;;;2.60;90.20;;;;;;5006560;28;20136;-69
2022/12/10 10:20:59;;;;;;;13.90;6.47;;;2.60;89.90;;;;;;5002333;28;20501;-69
2022/12/10 10:23:25;;;;;;;11.48;6.55;;;2.60;90.00;;;;;;5005829;28;20690;-69
2022/12/10 10:25:51;;;;;;;10.50;5.85;;;2.60;90.10;;;;;;5013229;28;20025;-69
2022/12/10 10:28:21;;;;;;;7.97;4.95;;;2.50;90.10;;;;;;5008077;28;20111;-69
2022/12/10 10:30:47;;;;;;;8.88;5.88;;;2.50;90.30;;;;;;5007520;28;20033;-68
2022/12/10 10:33:14;;;;;;;11.02;7.00;;;2.60;90.10;;;;;;5010595;28;20398;-76
2022/12/10 10:35:45;;;;;;;10.93;6.43;;;2.50;90.20;;;;;;5008637;28;20075;-69
2022/12/10 10:38:22;;;;;;;10.10;6.03;;;2.60;90.30;;;;;;5013789;28;20108;-69
2022/12/10 10:40:57;;;;;;;10.43;6.78;;;2.60;90.30;;;;;;5006045;28;20045;-69
2022/12/10 10:43:25;;;;;;;8.40;5.85;;;2.60;90.00;;;;;;5009493;28;20038;-69
2022/12/10 10:46:02;;;;;;;10.23;6.35;;;2.70;90.10;;;;;;5008329;28;20041;-70
2022/12/10 10:48:29;;;;;;;10.73;6.10;;;2.60;90.20;;;;;;5009076;28;20693;-69
2022/12/10 10:51:11;;;;;;;13.52;6.22;;;2.60;90.00;;;;;;5008922;28;20435;-69
2022/12/10 10:53:54;;;;;;;11.10;6.20;;;2.70;89.30;;;;;;5009140;28;20013;-69
2022/12/10 10:56:22;;;;;;;10.10;5.80;;;2.60;90.00;;;;;;5012070;28;20099;-69
2022/12/10 10:59:00;;;;;;;10.45;6.50;;;2.70;90.40;;;;;;5006917;28;20030;-70
2022/12/10 11:01:43;;;;;;;10.70;6.28;;;2.70;90.30;;;;;;5006484;28;20061;-69
2022/12/10 11:04:09;;;;;;;13.13;6.65;;;2.70;90.30;;;;;;5013629;28;20057;-69
2022/12/10 11:06:35;;;;;;;11.48;6.30;;;2.80;89.60;;;;;;5013824;28;20037;-69
2022/12/10 11:09:01;;;;;;;18.60;7.60;;;2.80;89.50;;;;;;5008535;28;20096;-70
2022/12/10 11:11:43;;;;;;;14.55;6.90;;;2.80;89.10;;;;;;5009671;28;20073;-69
2022/12/10 11:14:45;;;;;;;10.77;5.97;;;2.80;89.70;;;;;;5011011;28;20061;-69
2022/12/10 11:17:14;;;;;;;12.43;6.88;;;2.80;89.10;;;;;;4948808;28;20120;-69
2022/12/10 11:19:59;;;;;;;11.35;6.55;;;2.80;89.20;;;;;;4998786;28;20034;-69
2022/12/10 11:22:31;;;;;;;13.32;8.15;;;2.90;89.50;;;;;;5012891;28;20037;-69
2022/12/10 11:24:58;;;;;;;13.95;7.25;;;2.90;88.10;;;;;;5004066;28;20042;-69
2022/12/10 11:27:42;;;;;;;11.73;6.78;;;2.90;88.00;;;;;;5010191;28;20397;-69
2022/12/10 11:30:24;;;;;;;14.90;8.13;;;2.90;88.30;;;;;;5006456;28;20497;-69
2022/12/10 11:33:02;;;;;;;15.02;7.68;;;3.00;87.40;;;;;;5009426;28;20034;-68
2022/12/10 11:35:50;;;;;;;14.77;7.47;;;3.00;88.20;;;;;;5008737;28;20037;-69
2022/12/10 11:38:34;;;;;;;13.35;8.02;;;2.90;89.00;;;;;;5003674;28;20176;-69
2022/12/10 11:41:25;;;;;;;13.65;8.13;;;3.00;89.50;;;;;;5005954;28;20030;-69
2022/12/10 11:43:55;;;;;;;12.80;7.63;;;3.10;89.10;;;;;;5016233;28;20036;-69
2022/12/10 11:46:51;;;;;;;13.88;7.07;;;3.10;88.80;;;;;;5009178;28;20041;-69
2022/12/10 11:49:38;;;;;;;14.18;7.65;;;3.10;88.90;;;;;;5003491;28;20403;-68
2022/12/10 11:52:36;;;;;;;12.80;7.78;;;3.10;88.20;;;;;;5010449;28;20093;-68
2022/12/10 11:55:20;;;;;;;10.77;6.93;;;3.20;87.80;;;;;;4997610;28;20076;-68
2022/12/10 11:57:58;;;;;;;13.60;7.47;;;3.20;87.80;;;;;;5008818;28;20034;-69
2022/12/10 12:00:30;;;;;;;14.57;8.13;;;3.20;87.90;;;;;;5011768;28;20022;-69
2022/12/10 12:03:06;;;;;;;16.13;8.57;;;3.20;87.40;;;;;;5012636;28;20454;-69
2022/12/10 12:05:41;;;;;;;13.15;7.75;;;3.20;87.40;;;;;;5006318;28;20033;-69
2022/12/10 12:08:44;;;;;;;13.98;8.20;;;3.20;87.20;;;;;;5002490;28;20069;-69
2022/12/10 12:11:35;;;;;;;13.23;7.13;;;3.30;87.00;;;;;;5006154;28;20037;-69
2022/12/10 12:14:19;;;;;;;12.90;7.47;;;3.20;87.40;;;;;;5006799;28;20045;-69
2022/12/10 12:16:57;;;;;;;14.32;8.23;;;3.20;87.30;;;;;;5001278;28;20026;-70
2022/12/10 12:19:33;;;;;;;14.82;8.15;;;3.20;87.10;;;;;;5004476;28;20560;-70
2022/12/10 12:22:09;;;;;;;14.45;8.20;;;3.20;86.90;;;;;;5011695;28;20054;-70
2022/12/10 12:24:39;;;;;;;12.77;7.50;;;3.20;86.90;;;;;;5004558;28;20163;-69
2022/12/10 12:27:11;;;;;;;16.17;8.25;;;3.30;86.80;;;;;;5014140;28;20088;-69
2022/12/10 12:29:57;;;;;;;13.50;8.05;;;3.30;87.00;;;;;;5004337;28;20037;-68
2022/12/10 12:32:41;;;;;;;13.55;8.10;;;3.30;86.20;;;;;;5009703;28;20049;-69
2022/12/10 12:35:27;;;;;;;14.95;7.53;;;3.30;84.90;;;;;;5007946;28;20048;-69
2022/12/10 12:38:00;;;;;;;13.05;8.00;;;3.30;85.60;;;;;;5002507;28;20046;-69
2022/12/10 12:40:33;;;;;;;14.13;8.18;;;3.20;85.40;;;;;;5009119;28;20072;-68
2022/12/10 12:43:07;;;;;;;14.82;8.52;;;3.10;85.80;;;;;;5006058;28;20466;-69
2022/12/10 12:45:54;;;;;;;16.48;7.82;;;3.10;85.20;;;;;;5003662;28;20041;-69
2022/12/10 12:48:32;;;;;;;13.80;7.40;;;3.10;86.60;;;;;;5004814;28;20061;-69
2022/12/10 12:51:32;;;;;;;10.73;7.35;;;3.00;87.10;;;;;;5002582;28;20120;-69
2022/12/10 12:53:57;;;;;;;12.48;7.53;;;3.10;85.70;;;;;;4999673;28;20033;-69
2022/12/10 12:56:42;;;;;;;12.77;7.57;;;3.10;85.80;;;;;;5003074;28;20041;-69
2022/12/10 12:59:37;;;;;;;12.88;7.47;;;3.00;86.90;;;;;;5007828;28;20045;-69
2022/12/10 13:02:40;;;;;;;16.23;8.45;;;3.10;87.10;;;;;;5005523;28;20041;-69
2022/12/10 13:05:14;;;;;;;13.23;7.70;;;3.10;87.40;;;;;;5007933;28;20508;-69
2022/12/10 13:07:40;;;;;;;14.18;7.68;;;3.10;87.40;;;;;;5015195;28;20072;-69
2022/12/10 13:10:05;;;;;;;15.10;8.45;;;3.10;87.40;;;;;;5008022;28;20042;-68
2022/12/10 13:12:45;;;;;;;13.15;7.43;;;3.10;87.30;;;;;;5008004;28;20137;-70
2022/12/10 13:15:21;;;;;;;13.52;7.00;;;3.10;87.30;;;;;;5002640;28;20026;-69
2022/12/10 13:18:10;;;;;;;10.98;6.47;;;3.20;85.70;;;;;;5004443;28;20758;-69